sensor_id;sensor_type;location;lat;lon;timestamp;P1;durP1;ratioP1;P2;durP2;ratioP2
54261;SDS011;40174;52.364;6.452;2023-07-22T00:00:00;8.90;;;2.72;;
54261;SDS011;40174;52.364;6.452;2023-07-22T00:02:32;5.28;;;2.20;;
54261;SDS011;40174;52.364;6.452;2023-07-22T00:04:58;7.38;;;2.20;;
54261;SDS011;40174;52.364;6.452;2023-07-22T00:07:25;10.88;;;2.90;;
54261;SDS011;40174;52.364;6.452;2023-07-22T00:09:52;7.30;;;2.40;;
54261;SDS011;40174;52.364;6.452;2023-07-22T00:12:19;7.30;;;2.63;;
54261;SDS011;40174;52.364;6.452;2023-07-22T00:14:50;10.52;;;3.15;;
54261;SDS011;40174;52.364;6.452;2023-07-22T00:17:17;8.35;;;2.92;;
54261;SDS011;40174;52.364;6.452;2023-07-22T00:19:47;11.45;;;3.17;;
54261;SDS011;40174;52.364;6.452;2023-07-22T00:22:13;7.22;;;2.75;;
54261;SDS011;40174;52.364;6.452;2023-07-22T00:24:41;6.85;;;3.00;;
54261;SDS011;40174;52.364;6.452;2023-07-22T00:27:08;8.55;;;3.08;;
54261;SDS011;40174;52.364;6.452;2023-07-22T00:29:34;7.05;;;2.53;;
54261;SDS011;40174;52.364;6.452;2023-07-22T00:32:01;10.10;;;2.97;;
54261;SDS011;40174;52.364;6.452;2023-07-22T00:34:28;6.20;;;2.50;;
54261;SDS011;40174;52.364;6.452;2023-07-22T00:36:56;8.40;;;2.65;;
54261;SDS011;40174;52.364;6.452;2023-07-22T00:39:23;6.82;;;2.55;;
54261;SDS011;40174;52.364;6.452;2023-07-22T00:41:50;6.75;;;2.42;;
54261;SDS011;40174;52.364;6.452;2023-07-22T00:44:16;7.57;;;2.90;;
54261;SDS011;40174;52.364;6.452;2023-07-22T00:46:43;6.13;;;2.25;;
54261;SDS011;40174;52.364;6.452;2023-07-22T00:49:11;9.18;;;2.75;;
54261;SDS011;40174;52.364;6.452;2023-07-22T00:51:40;9.88;;;3.45;;
54261;SDS011;40174;52.364;6.452;2023-07-22T00:54:09;9.20;;;3.20;;
54261;SDS011;40174;52.364;6.452;2023-07-22T00:56:36;14.75;;;3.13;;
54261;SDS011;40174;52.364;6.452;2023-07-22T00:59:03;7.05;;;2.92;;
54261;SDS011;40174;52.364;6.452;2023-07-22T01:01:31;9.15;;;3.40;;
54261;SDS011;40174;52.364;6.452;2023-07-22T01:03:58;9.85;;;3.08;;
54261;SDS011;40174;52.364;6.452;2023-07-22T01:06:26;11.32;;;2.80;;
54261;SDS011;40174;52.364;6.452;2023-07-22T01:08:56;8.95;;;2.72;;
54261;SDS011;40174;52.364;6.452;2023-07-22T01:11:25;7.93;;;2.47;;
54261;SDS011;40174;52.364;6.452;2023-07-22T01:13:51;9.98;;;3.20;;
54261;SDS011;40174;52.364;6.452;2023-07-22T01:16:23;8.60;;;2.40;;
54261;SDS011;40174;52.364;6.452;2023-07-22T01:18:51;8.70;;;2.95;;
54261;SDS011;40174;52.364;6.452;2023-07-22T01:21:20;8.23;;;2.90;;
54261;SDS011;40174;52.364;6.452;2023-07-22T01:23:50;9.20;;;2.90;;
54261;SDS011;40174;52.364;6.452;2023-07-22T01:26:17;9.27;;;2.70;;
54261;SDS011;40174;52.364;6.452;2023-07-22T01:28:44;11.90;;;3.33;;
54261;SDS011;40174;52.364;6.452;2023-07-22T01:31:10;10.27;;;2.85;;
54261;SDS011;40174;52.364;6.452;2023-07-22T01:33:37;9.38;;;2.63;;
54261;SDS011;40174;52.364;6.452;2023-07-22T01:36:04;7.40;;;2.92;;
54261;SDS011;40174;52.364;6.452;2023-07-22T01:38:32;8.20;;;3.22;;
54261;SDS011;40174;52.364;6.452;2023-07-22T01:41:01;8.00;;;2.67;;
54261;SDS011;40174;52.364;6.452;2023-07-22T01:43:27;12.05;;;3.42;;
54261;SDS011;40174;52.364;6.452;2023-07-22T01:45:54;10.13;;;3.17;;
54261;SDS011;40174;52.364;6.452;2023-07-22T01:48:21;8.00;;;2.50;;
54261;SDS011;40174;52.364;6.452;2023-07-22T01:50:48;9.30;;;3.20;;
54261;SDS011;40174;52.364;6.452;2023-07-22T01:53:34;9.63;;;3.33;;
54261;SDS011;40174;52.364;6.452;2023-07-22T01:56:02;7.55;;;2.83;;
54261;SDS011;40174;52.364;6.452;2023-07-22T01:58:30;7.85;;;2.70;;
54261;SDS011;40174;52.364;6.452;2023-07-22T02:00:57;12.90;;;3.67;;
54261;SDS011;40174;52.364;6.452;2023-07-22T02:03:24;11.55;;;3.40;;
54261;SDS011;40174;52.364;6.452;2023-07-22T02:05:51;9.77;;;3.85;;
54261;SDS011;40174;52.364;6.452;2023-07-22T02:08:18;13.35;;;3.85;;
54261;SDS011;40174;52.364;6.452;2023-07-22T02:10:45;11.68;;;3.95;;
54261;SDS011;40174;52.364;6.452;2023-07-22T02:13:13;9.20;;;3.50;;
54261;SDS011;40174;52.364;6.452;2023-07-22T02:15:41;12.77;;;3.83;;
54261;SDS011;40174;52.364;6.452;2023-07-22T02:18:08;8.68;;;3.75;;
54261;SDS011;40174;52.364;6.452;2023-07-22T02:20:34;12.82;;;3.95;;
54261;SDS011;40174;52.364;6.452;2023-07-22T02:23:01;12.27;;;4.28;;
54261;SDS011;40174;52.364;6.452;2023-07-22T02:25:28;11.43;;;3.25;;
54261;SDS011;40174;52.364;6.452;2023-07-22T02:27:54;11.02;;;3.90;;
54261;SDS011;40174;52.364;6.452;2023-07-22T02:30:23;10.82;;;4.60;;
54261;SDS011;40174;52.364;6.452;2023-07-22T02:32:49;11.57;;;3.63;;
54261;SDS011;40174;52.364;6.452;2023-07-22T02:35:16;12.23;;;4.40;;
54261;SDS011;40174;52.364;6.452;2023-07-22T02:37:43;11.85;;;4.57;;
54261;SDS011;40174;52.364;6.452;2023-07-22T02:40:10;16.58;;;5.03;;
54261;SDS011;40174;52.364;6.452;2023-07-22T02:42:37;10.27;;;4.07;;
54261;SDS011;40174;52.364;6.452;2023-07-22T02:45:05;13.20;;;4.28;;
54261;SDS011;40174;52.364;6.452;2023-07-22T02:47:35;10.40;;;4.68;;
54261;SDS011;40174;52.364;6.452;2023-07-22T02:50:02;9.35;;;3.85;;
54261;SDS011;40174;52.364;6.452;2023-07-22T02:52:30;11.48;;;4.30;;
54261;SDS011;40174;52.364;6.452;2023-07-22T02:55:07;12.38;;;4.03;;
54261;SDS011;40174;52.364;6.452;2023-07-22T02:57:36;15.48;;;4.07;;
54261;SDS011;40174;52.364;6.452;2023-07-22T03:00:03;15.05;;;4.82;;
54261;SDS011;40174;52.364;6.452;2023-07-22T03:02:54;13.90;;;4.07;;
54261;SDS011;40174;52.364;6.452;2023-07-22T03:05:25;10.88;;;3.63;;
54261;SDS011;40174;52.364;6.452;2023-07-22T03:07:53;12.30;;;4.15;;
54261;SDS011;40174;52.364;6.452;2023-07-22T03:10:20;14.07;;;4.15;;
54261;SDS011;40174;52.364;6.452;2023-07-22T03:12:46;14.20;;;4.20;;
54261;SDS011;40174;52.364;6.452;2023-07-22T03:15:13;13.50;;;4.47;;
54261;SDS011;40174;52.364;6.452;2023-07-22T03:17:40;9.45;;;4.63;;
54261;SDS011;40174;52.364;6.452;2023-07-22T03:20:10;12.18;;;4.47;;
54261;SDS011;40174;52.364;6.452;2023-07-22T03:22:40;9.05;;;3.40;;
54261;SDS011;40174;52.364;6.452;2023-07-22T03:25:07;12.10;;;4.28;;
54261;SDS011;40174;52.364;6.452;2023-07-22T03:27:35;14.48;;;4.13;;
54261;SDS011;40174;52.364;6.452;2023-07-22T03:30:02;10.48;;;3.85;;
54261;SDS011;40174;52.364;6.452;2023-07-22T03:32:29;13.23;;;4.05;;
54261;SDS011;40174;52.364;6.452;2023-07-22T03:34:56;11.45;;;3.80;;
54261;SDS011;40174;52.364;6.452;2023-07-22T03:37:24;11.55;;;3.88;;
54261;SDS011;40174;52.364;6.452;2023-07-22T03:39:51;10.63;;;4.32;;
54261;SDS011;40174;52.364;6.452;2023-07-22T03:42:18;11.35;;;4.15;;
54261;SDS011;40174;52.364;6.452;2023-07-22T03:44:44;11.55;;;4.07;;
54261;SDS011;40174;52.364;6.452;2023-07-22T03:47:11;9.45;;;3.15;;
54261;SDS011;40174;52.364;6.452;2023-07-22T03:49:38;11.00;;;4.18;;
54261;SDS011;40174;52.364;6.452;2023-07-22T03:52:05;11.75;;;3.60;;
54261;SDS011;40174;52.364;6.452;2023-07-22T03:54:34;12.40;;;3.83;;
54261;SDS011;40174;52.364;6.452;2023-07-22T03:57:01;11.63;;;3.92;;
54261;SDS011;40174;52.364;6.452;2023-07-22T03:59:28;14.90;;;4.43;;
54261;SDS011;40174;52.364;6.452;2023-07-22T04:01:54;15.77;;;4.97;;
54261;SDS011;40174;52.364;6.452;2023-07-22T04:04:21;14.77;;;4.85;;
54261;SDS011;40174;52.364;6.452;2023-07-22T04:06:48;10.45;;;4.35;;
54261;SDS011;40174;52.364;6.452;2023-07-22T04:09:14;13.45;;;4.40;;
54261;SDS011;40174;52.364;6.452;2023-07-22T04:11:42;11.07;;;3.85;;
54261;SDS011;40174;52.364;6.452;2023-07-22T04:14:09;11.73;;;4.35;;
54261;SDS011;40174;52.364;6.452;2023-07-22T04:16:37;10.35;;;3.80;;
54261;SDS011;40174;52.364;6.452;2023-07-22T04:19:04;13.88;;;4.80;;
54261;SDS011;40174;52.364;6.452;2023-07-22T04:21:31;10.65;;;4.15;;
54261;SDS011;40174;52.364;6.452;2023-07-22T04:23:58;14.13;;;4.55;;
54261;SDS011;40174;52.364;6.452;2023-07-22T04:26:24;14.43;;;4.28;;
54261;SDS011;40174;52.364;6.452;2023-07-22T04:28:55;13.60;;;4.70;;
54261;SDS011;40174;52.364;6.452;2023-07-22T04:31:22;10.43;;;3.83;;
54261;SDS011;40174;52.364;6.452;2023-07-22T04:33:48;16.00;;;4.07;;
54261;SDS011;40174;52.364;6.452;2023-07-22T04:36:15;11.93;;;4.32;;
54261;SDS011;40174;52.364;6.452;2023-07-22T04:38:42;16.88;;;5.32;;
54261;SDS011;40174;52.364;6.452;2023-07-22T04:41:09;12.25;;;4.15;;
54261;SDS011;40174;52.364;6.452;2023-07-22T04:43:35;10.10;;;3.58;;
54261;SDS011;40174;52.364;6.452;2023-07-22T04:46:03;12.70;;;4.15;;
54261;SDS011;40174;52.364;6.452;2023-07-22T04:48:31;9.98;;;4.30;;
54261;SDS011;40174;52.364;6.452;2023-07-22T04:50:57;12.65;;;4.85;;
54261;SDS011;40174;52.364;6.452;2023-07-22T04:53:24;11.45;;;4.10;;
54261;SDS011;40174;52.364;6.452;2023-07-22T04:55:51;11.27;;;4.05;;
54261;SDS011;40174;52.364;6.452;2023-07-22T04:58:17;12.15;;;4.47;;
54261;SDS011;40174;52.364;6.452;2023-07-22T05:00:45;14.18;;;4.82;;
54261;SDS011;40174;52.364;6.452;2023-07-22T05:03:13;11.95;;;4.90;;
54261;SDS011;40174;52.364;6.452;2023-07-22T05:05:40;12.93;;;4.30;;
54261;SDS011;40174;52.364;6.452;2023-07-22T05:08:06;17.98;;;5.03;;
54261;SDS011;40174;52.364;6.452;2023-07-22T05:10:33;16.58;;;5.68;;
54261;SDS011;40174;52.364;6.452;2023-07-22T05:13:00;15.88;;;4.80;;
54261;SDS011;40174;52.364;6.452;2023-07-22T05:15:26;17.17;;;5.40;;
54261;SDS011;40174;52.364;6.452;2023-07-22T05:17:53;14.57;;;5.50;;
54261;SDS011;40174;52.364;6.452;2023-07-22T05:20:21;16.05;;;4.82;;
54261;SDS011;40174;52.364;6.452;2023-07-22T05:22:48;14.73;;;4.88;;
54261;SDS011;40174;52.364;6.452;2023-07-22T05:25:14;17.05;;;4.88;;
54261;SDS011;40174;52.364;6.452;2023-07-22T05:27:41;13.43;;;5.35;;
54261;SDS011;40174;52.364;6.452;2023-07-22T05:30:08;17.10;;;5.40;;
54261;SDS011;40174;52.364;6.452;2023-07-22T05:32:35;14.73;;;5.25;;
54261;SDS011;40174;52.364;6.452;2023-07-22T05:35:02;12.48;;;4.85;;
54261;SDS011;40174;52.364;6.452;2023-07-22T05:37:32;14.32;;;5.28;;
54261;SDS011;40174;52.364;6.452;2023-07-22T05:39:58;15.68;;;4.72;;
54261;SDS011;40174;52.364;6.452;2023-07-22T05:45:11;17.30;;;5.78;;
54261;SDS011;40174;52.364;6.452;2023-07-22T05:47:40;15.13;;;5.38;;
54261;SDS011;40174;52.364;6.452;2023-07-22T05:50:07;18.60;;;6.15;;
54261;SDS011;40174;52.364;6.452;2023-07-22T05:52:35;17.45;;;5.80;;
54261;SDS011;40174;52.364;6.452;2023-07-22T05:55:02;13.45;;;5.57;;
54261;SDS011;40174;52.364;6.452;2023-07-22T05:57:48;17.38;;;6.32;;
54261;SDS011;40174;52.364;6.452;2023-07-22T06:00:15;18.08;;;6.88;;
54261;SDS011;40174;52.364;6.452;2023-07-22T06:02:42;15.65;;;6.15;;
54261;SDS011;40174;52.364;6.452;2023-07-22T06:05:09;19.08;;;5.90;;
54261;SDS011;40174;52.364;6.452;2023-07-22T06:07:37;17.25;;;6.60;;
54261;SDS011;40174;52.364;6.452;2023-07-22T06:10:04;15.73;;;5.88;;
54261;SDS011;40174;52.364;6.452;2023-07-22T06:12:31;13.07;;;5.75;;
54261;SDS011;40174;52.364;6.452;2023-07-22T06:14:58;14.75;;;4.78;;
54261;SDS011;40174;52.364;6.452;2023-07-22T06:17:25;16.88;;;5.90;;
54261;SDS011;40174;52.364;6.452;2023-07-22T06:19:51;14.65;;;5.18;;
54261;SDS011;40174;52.364;6.452;2023-07-22T06:22:18;17.52;;;5.72;;
54261;SDS011;40174;52.364;6.452;2023-07-22T06:24:46;16.63;;;5.93;;
54261;SDS011;40174;52.364;6.452;2023-07-22T06:27:13;19.95;;;6.20;;
54261;SDS011;40174;52.364;6.452;2023-07-22T06:29:40;15.35;;;5.82;;
54261;SDS011;40174;52.364;6.452;2023-07-22T06:32:06;16.65;;;5.47;;
54261;SDS011;40174;52.364;6.452;2023-07-22T06:37:19;13.57;;;5.32;;
54261;SDS011;40174;52.364;6.452;2023-07-22T06:39:47;15.77;;;6.25;;
54261;SDS011;40174;52.364;6.452;2023-07-22T06:42:13;18.25;;;6.30;;
54261;SDS011;40174;52.364;6.452;2023-07-22T06:44:40;16.00;;;6.18;;
54261;SDS011;40174;52.364;6.452;2023-07-22T06:47:07;18.27;;;7.22;;
54261;SDS011;40174;52.364;6.452;2023-07-22T06:49:33;21.48;;;7.28;;
54261;SDS011;40174;52.364;6.452;2023-07-22T06:52:00;18.83;;;6.80;;
54261;SDS011;40174;52.364;6.452;2023-07-22T06:54:28;18.67;;;6.50;;
54261;SDS011;40174;52.364;6.452;2023-07-22T06:56:56;19.83;;;6.43;;
54261;SDS011;40174;52.364;6.452;2023-07-22T06:59:22;14.77;;;5.95;;
54261;SDS011;40174;52.364;6.452;2023-07-22T07:02:10;16.85;;;6.43;;
54261;SDS011;40174;52.364;6.452;2023-07-22T07:04:37;17.65;;;5.82;;
54261;SDS011;40174;52.364;6.452;2023-07-22T07:07:03;17.10;;;5.50;;
54261;SDS011;40174;52.364;6.452;2023-07-22T07:09:30;18.27;;;6.15;;
54261;SDS011;40174;52.364;6.452;2023-07-22T07:11:58;17.02;;;6.07;;
54261;SDS011;40174;52.364;6.452;2023-07-22T07:14:25;21.00;;;6.22;;
54261;SDS011;40174;52.364;6.452;2023-07-22T07:16:52;17.10;;;6.15;;
54261;SDS011;40174;52.364;6.452;2023-07-22T07:19:18;19.35;;;6.13;;
54261;SDS011;40174;52.364;6.452;2023-07-22T07:21:45;15.00;;;5.65;;
54261;SDS011;40174;52.364;6.452;2023-07-22T07:24:12;13.20;;;5.38;;
54261;SDS011;40174;52.364;6.452;2023-07-22T07:26:38;11.20;;;4.25;;
54261;SDS011;40174;52.364;6.452;2023-07-22T07:29:07;12.07;;;4.80;;
54261;SDS011;40174;52.364;6.452;2023-07-22T07:31:33;13.35;;;4.78;;
54261;SDS011;40174;52.364;6.452;2023-07-22T07:34:00;11.57;;;4.25;;
54261;SDS011;40174;52.364;6.452;2023-07-22T07:36:27;16.05;;;5.07;;
54261;SDS011;40174;52.364;6.452;2023-07-22T07:38:54;16.08;;;4.13;;
54261;SDS011;40174;52.364;6.452;2023-07-22T07:41:20;13.38;;;4.43;;
54261;SDS011;40174;52.364;6.452;2023-07-22T07:43:47;10.43;;;4.00;;
54261;SDS011;40174;52.364;6.452;2023-07-22T07:46:19;15.77;;;4.07;;
54261;SDS011;40174;52.364;6.452;2023-07-22T07:48:49;12.80;;;4.25;;
54261;SDS011;40174;52.364;6.452;2023-07-22T07:51:16;11.27;;;4.03;;
54261;SDS011;40174;52.364;6.452;2023-07-22T07:53:45;8.02;;;3.13;;
54261;SDS011;40174;52.364;6.452;2023-07-22T07:56:13;12.55;;;3.80;;
54261;SDS011;40174;52.364;6.452;2023-07-22T07:58:40;12.88;;;3.78;;
54261;SDS011;40174;52.364;6.452;2023-07-22T08:01:07;9.32;;;3.63;;
54261;SDS011;40174;52.364;6.452;2023-07-22T08:03:35;14.05;;;4.20;;
54261;SDS011;40174;52.364;6.452;2023-07-22T08:06:03;12.73;;;3.90;;
54261;SDS011;40174;52.364;6.452;2023-07-22T08:08:31;10.55;;;4.07;;
54261;SDS011;40174;52.364;6.452;2023-07-22T08:10:59;9.57;;;3.67;;
54261;SDS011;40174;52.364;6.452;2023-07-22T08:13:26;9.27;;;3.55;;
54261;SDS011;40174;52.364;6.452;2023-07-22T08:15:55;12.48;;;3.65;;
54261;SDS011;40174;52.364;6.452;2023-07-22T08:18:21;10.20;;;3.83;;
54261;SDS011;40174;52.364;6.452;2023-07-22T08:20:50;9.70;;;3.58;;
54261;SDS011;40174;52.364;6.452;2023-07-22T08:23:18;9.30;;;3.55;;
54261;SDS011;40174;52.364;6.452;2023-07-22T08:25:44;13.60;;;3.30;;
54261;SDS011;40174;52.364;6.452;2023-07-22T08:28:11;11.25;;;3.80;;
54261;SDS011;40174;52.364;6.452;2023-07-22T08:30:38;10.90;;;3.75;;
54261;SDS011;40174;52.364;6.452;2023-07-22T08:33:05;8.93;;;3.60;;
54261;SDS011;40174;52.364;6.452;2023-07-22T08:35:33;10.80;;;3.00;;
54261;SDS011;40174;52.364;6.452;2023-07-22T08:38:01;10.50;;;3.88;;
54261;SDS011;40174;52.364;6.452;2023-07-22T08:40:32;9.00;;;2.22;;
54261;SDS011;40174;52.364;6.452;2023-07-22T08:42:59;11.32;;;3.50;;
54261;SDS011;40174;52.364;6.452;2023-07-22T08:45:29;9.60;;;3.10;;
54261;SDS011;40174;52.364;6.452;2023-07-22T08:47:57;12.02;;;2.63;;
54261;SDS011;40174;52.364;6.452;2023-07-22T08:50:26;8.63;;;2.83;;
54261;SDS011;40174;52.364;6.452;2023-07-22T08:52:56;7.63;;;2.70;;
54261;SDS011;40174;52.364;6.452;2023-07-22T08:55:26;7.47;;;2.72;;
54261;SDS011;40174;52.364;6.452;2023-07-22T08:57:53;7.80;;;3.10;;
54261;SDS011;40174;52.364;6.452;2023-07-22T09:00:21;10.77;;;3.20;;
54261;SDS011;40174;52.364;6.452;2023-07-22T09:02:47;6.93;;;3.03;;
54261;SDS011;40174;52.364;6.452;2023-07-22T09:05:15;8.10;;;3.38;;
54261;SDS011;40174;52.364;6.452;2023-07-22T09:07:42;9.23;;;3.15;;
54261;SDS011;40174;52.364;6.452;2023-07-22T09:10:10;9.45;;;3.10;;
54261;SDS011;40174;52.364;6.452;2023-07-22T09:12:38;9.38;;;2.90;;
54261;SDS011;40174;52.364;6.452;2023-07-22T09:15:07;10.27;;;3.67;;
54261;SDS011;40174;52.364;6.452;2023-07-22T09:17:36;8.43;;;2.90;;
54261;SDS011;40174;52.364;6.452;2023-07-22T09:20:04;8.02;;;2.97;;
54261;SDS011;40174;52.364;6.452;2023-07-22T09:22:32;8.73;;;3.00;;
54261;SDS011;40174;52.364;6.452;2023-07-22T09:25:12;10.57;;;3.13;;
54261;SDS011;40174;52.364;6.452;2023-07-22T09:27:42;8.05;;;2.58;;
54261;SDS011;40174;52.364;6.452;2023-07-22T09:32:52;7.40;;;2.92;;
54261;SDS011;40174;52.364;6.452;2023-07-22T09:35:20;8.10;;;2.70;;
54261;SDS011;40174;52.364;6.452;2023-07-22T09:37:47;8.63;;;2.80;;
54261;SDS011;40174;52.364;6.452;2023-07-22T09:40:33;10.32;;;2.88;;
54261;SDS011;40174;52.364;6.452;2023-07-22T09:43:01;10.15;;;2.80;;
54261;SDS011;40174;52.364;6.452;2023-07-22T09:45:29;7.50;;;2.85;;
54261;SDS011;40174;52.364;6.452;2023-07-22T09:47:57;7.78;;;3.20;;
54261;SDS011;40174;52.364;6.452;2023-07-22T09:50:25;9.00;;;2.60;;
54261;SDS011;40174;52.364;6.452;2023-07-22T09:52:53;9.30;;;3.30;;
54261;SDS011;40174;52.364;6.452;2023-07-22T09:55:21;6.22;;;2.47;;
54261;SDS011;40174;52.364;6.452;2023-07-22T09:57:50;7.90;;;3.38;;
54261;SDS011;40174;52.364;6.452;2023-07-22T10:00:20;10.38;;;2.88;;
54261;SDS011;40174;52.364;6.452;2023-07-22T10:02:51;7.47;;;2.75;;
54261;SDS011;40174;52.364;6.452;2023-07-22T10:05:19;8.73;;;2.75;;
54261;SDS011;40174;52.364;6.452;2023-07-22T10:07:47;7.63;;;3.33;;
54261;SDS011;40174;52.364;6.452;2023-07-22T10:10:15;6.80;;;2.30;;
54261;SDS011;40174;52.364;6.452;2023-07-22T10:12:43;11.10;;;3.50;;
54261;SDS011;40174;52.364;6.452;2023-07-22T10:15:10;9.95;;;2.80;;
54261;SDS011;40174;52.364;6.452;2023-07-22T10:17:40;8.45;;;3.08;;
54261;SDS011;40174;52.364;6.452;2023-07-22T10:20:07;8.40;;;2.72;;
54261;SDS011;40174;52.364;6.452;2023-07-22T10:22:37;9.02;;;2.92;;
54261;SDS011;40174;52.364;6.452;2023-07-22T10:25:05;7.60;;;2.75;;
54261;SDS011;40174;52.364;6.452;2023-07-22T10:27:33;7.00;;;3.00;;
54261;SDS011;40174;52.364;6.452;2023-07-22T10:30:01;7.68;;;2.92;;
54261;SDS011;40174;52.364;6.452;2023-07-22T10:32:31;6.47;;;2.65;;
54261;SDS011;40174;52.364;6.452;2023-07-22T10:35:02;9.00;;;2.90;;
54261;SDS011;40174;52.364;6.452;2023-07-22T10:37:30;7.90;;;3.00;;
54261;SDS011;40174;52.364;6.452;2023-07-22T10:40:01;7.10;;;2.42;;
54261;SDS011;40174;52.364;6.452;2023-07-22T10:42:43;9.85;;;3.45;;
54261;SDS011;40174;52.364;6.452;2023-07-22T10:45:39;6.65;;;2.70;;
54261;SDS011;40174;52.364;6.452;2023-07-22T10:48:07;8.18;;;2.88;;
54261;SDS011;40174;52.364;6.452;2023-07-22T10:50:42;6.15;;;2.38;;
54261;SDS011;40174;52.364;6.452;2023-07-22T10:53:12;8.93;;;2.78;;
54261;SDS011;40174;52.364;6.452;2023-07-22T10:58:29;6.00;;;2.63;;
54261;SDS011;40174;52.364;6.452;2023-07-22T11:00:56;6.32;;;2.47;;
54261;SDS011;40174;52.364;6.452;2023-07-22T11:04:08;6.50;;;2.13;;
54261;SDS011;40174;52.364;6.452;2023-07-22T11:06:40;7.10;;;2.58;;
54261;SDS011;40174;52.364;6.452;2023-07-22T11:12:14;6.43;;;2.25;;
54261;SDS011;40174;52.364;6.452;2023-07-22T11:14:46;6.03;;;2.28;;
54261;SDS011;40174;52.364;6.452;2023-07-22T11:17:14;6.97;;;2.30;;
54261;SDS011;40174;52.364;6.452;2023-07-22T11:19:41;6.72;;;2.38;;
54261;SDS011;40174;52.364;6.452;2023-07-22T11:22:09;6.35;;;2.53;;
54261;SDS011;40174;52.364;6.452;2023-07-22T11:24:36;6.10;;;2.72;;
54261;SDS011;40174;52.364;6.452;2023-07-22T11:27:04;5.78;;;1.63;;
54261;SDS011;40174;52.364;6.452;2023-07-22T11:29:31;5.40;;;2.38;;
54261;SDS011;40174;52.364;6.452;2023-07-22T11:31:58;5.35;;;1.63;;
54261;SDS011;40174;52.364;6.452;2023-07-22T11:34:25;5.22;;;2.03;;
54261;SDS011;40174;52.364;6.452;2023-07-22T11:36:52;4.82;;;1.80;;
54261;SDS011;40174;52.364;6.452;2023-07-22T11:39:23;5.63;;;1.85;;
54261;SDS011;40174;52.364;6.452;2023-07-22T11:41:51;4.43;;;2.08;;
54261;SDS011;40174;52.364;6.452;2023-07-22T11:44:19;4.03;;;1.75;;
54261;SDS011;40174;52.364;6.452;2023-07-22T11:46:47;6.63;;;1.75;;
54261;SDS011;40174;52.364;6.452;2023-07-22T11:49:21;10.63;;;2.13;;
54261;SDS011;40174;52.364;6.452;2023-07-22T11:51:54;5.63;;;1.80;;
54261;SDS011;40174;52.364;6.452;2023-07-22T11:54:23;4.45;;;2.15;;
54261;SDS011;40174;52.364;6.452;2023-07-22T11:56:50;9.25;;;2.40;;
54261;SDS011;40174;52.364;6.452;2023-07-22T11:59:16;5.60;;;1.92;;
54261;SDS011;40174;52.364;6.452;2023-07-22T12:02:02;7.60;;;2.03;;
54261;SDS011;40174;52.364;6.452;2023-07-22T12:04:30;6.95;;;1.92;;
54261;SDS011;40174;52.364;6.452;2023-07-22T12:06:57;5.35;;;1.85;;
54261;SDS011;40174;52.364;6.452;2023-07-22T12:09:25;5.43;;;1.60;;
54261;SDS011;40174;52.364;6.452;2023-07-22T12:11:56;4.40;;;1.83;;
54261;SDS011;40174;52.364;6.452;2023-07-22T12:14:23;7.00;;;1.90;;
54261;SDS011;40174;52.364;6.452;2023-07-22T12:16:53;5.43;;;1.80;;
54261;SDS011;40174;52.364;6.452;2023-07-22T12:19:22;5.93;;;1.85;;
54261;SDS011;40174;52.364;6.452;2023-07-22T12:21:49;7.85;;;1.92;;
54261;SDS011;40174;52.364;6.452;2023-07-22T12:24:16;3.35;;;1.58;;
54261;SDS011;40174;52.364;6.452;2023-07-22T12:26:44;4.95;;;1.85;;
54261;SDS011;40174;52.364;6.452;2023-07-22T12:29:11;9.27;;;2.63;;
54261;SDS011;40174;52.364;6.452;2023-07-22T12:31:37;4.22;;;2.08;;
54261;SDS011;40174;52.364;6.452;2023-07-22T12:34:04;6.75;;;2.25;;
54261;SDS011;40174;52.364;6.452;2023-07-22T12:36:31;5.82;;;2.15;;
54261;SDS011;40174;52.364;6.452;2023-07-22T12:38:57;5.47;;;1.98;;
54261;SDS011;40174;52.364;6.452;2023-07-22T12:41:24;7.60;;;2.38;;
54261;SDS011;40174;52.364;6.452;2023-07-22T12:43:52;8.60;;;2.92;;
54261;SDS011;40174;52.364;6.452;2023-07-22T12:46:19;9.13;;;2.75;;
54261;SDS011;40174;52.364;6.452;2023-07-22T12:48:46;6.07;;;2.40;;
54261;SDS011;40174;52.364;6.452;2023-07-22T12:51:12;7.35;;;3.33;;
54261;SDS011;40174;52.364;6.452;2023-07-22T12:53:39;7.47;;;2.40;;
54261;SDS011;40174;52.364;6.452;2023-07-22T12:56:06;7.80;;;3.17;;
54261;SDS011;40174;52.364;6.452;2023-07-22T12:58:32;6.65;;;2.60;;
54261;SDS011;40174;52.364;6.452;2023-07-22T13:01:00;7.72;;;3.08;;
54261;SDS011;40174;52.364;6.452;2023-07-22T13:03:27;8.90;;;3.38;;
54261;SDS011;40174;52.364;6.452;2023-07-22T13:05:54;10.23;;;3.03;;
54261;SDS011;40174;52.364;6.452;2023-07-22T13:08:39;7.00;;;3.30;;
54261;SDS011;40174;52.364;6.452;2023-07-22T13:11:05;5.45;;;2.92;;
54261;SDS011;40174;52.364;6.452;2023-07-22T13:13:32;10.57;;;3.70;;
54261;SDS011;40174;52.364;6.452;2023-07-22T13:16:00;10.88;;;2.95;;
54261;SDS011;40174;52.364;6.452;2023-07-22T13:18:27;8.48;;;3.08;;
54261;SDS011;40174;52.364;6.452;2023-07-22T13:21:12;10.57;;;3.38;;
54261;SDS011;40174;52.364;6.452;2023-07-22T13:23:39;7.10;;;2.67;;
54261;SDS011;40174;52.364;6.452;2023-07-22T13:26:05;7.68;;;3.08;;
54261;SDS011;40174;52.364;6.452;2023-07-22T13:28:32;7.93;;;3.30;;
54261;SDS011;40174;52.364;6.452;2023-07-22T13:31:00;6.65;;;3.35;;
54261;SDS011;40174;52.364;6.452;2023-07-22T13:33:27;7.68;;;3.05;;
54261;SDS011;40174;52.364;6.452;2023-07-22T13:35:53;11.18;;;3.05;;
54261;SDS011;40174;52.364;6.452;2023-07-22T13:38:20;6.72;;;3.17;;
54261;SDS011;40174;52.364;6.452;2023-07-22T13:40:47;7.05;;;3.40;;
54261;SDS011;40174;52.364;6.452;2023-07-22T13:43:13;9.77;;;3.65;;
54261;SDS011;40174;52.364;6.452;2023-07-22T13:45:40;7.63;;;3.35;;
54261;SDS011;40174;52.364;6.452;2023-07-22T13:48:08;10.52;;;4.18;;
54261;SDS011;40174;52.364;6.452;2023-07-22T13:50:36;7.85;;;3.65;;
54261;SDS011;40174;52.364;6.452;2023-07-22T13:53:03;7.70;;;3.75;;
54261;SDS011;40174;52.364;6.452;2023-07-22T13:55:30;8.00;;;3.25;;
54261;SDS011;40174;52.364;6.452;2023-07-22T13:57:56;7.53;;;3.78;;
54261;SDS011;40174;52.364;6.452;2023-07-22T14:00:23;6.28;;;3.13;;
54261;SDS011;40174;52.364;6.452;2023-07-22T14:02:50;9.98;;;3.80;;
54261;SDS011;40174;52.364;6.452;2023-07-22T14:05:18;7.45;;;3.33;;
54261;SDS011;40174;52.364;6.452;2023-07-22T14:07:44;8.32;;;3.90;;
54261;SDS011;40174;52.364;6.452;2023-07-22T14:10:11;10.70;;;3.75;;
54261;SDS011;40174;52.364;6.452;2023-07-22T14:12:37;9.10;;;3.33;;
54261;SDS011;40174;52.364;6.452;2023-07-22T14:15:04;7.72;;;3.17;;
54261;SDS011;40174;52.364;6.452;2023-07-22T14:17:32;6.63;;;3.28;;
54261;SDS011;40174;52.364;6.452;2023-07-22T14:19:59;12.90;;;3.40;;
54261;SDS011;40174;52.364;6.452;2023-07-22T14:22:27;7.95;;;2.95;;
54261;SDS011;40174;52.364;6.452;2023-07-22T14:24:53;7.07;;;3.10;;
54261;SDS011;40174;52.364;6.452;2023-07-22T14:27:20;8.75;;;3.70;;
54261;SDS011;40174;52.364;6.452;2023-07-22T14:29:47;8.63;;;3.35;;
54261;SDS011;40174;52.364;6.452;2023-07-22T14:32:13;7.20;;;3.40;;
54261;SDS011;40174;52.364;6.452;2023-07-22T14:34:41;9.52;;;3.92;;
54261;SDS011;40174;52.364;6.452;2023-07-22T14:37:08;6.97;;;3.53;;
54261;SDS011;40174;52.364;6.452;2023-07-22T14:39:36;7.72;;;3.55;;
54261;SDS011;40174;52.364;6.452;2023-07-22T14:42:02;6.72;;;3.33;;
54261;SDS011;40174;52.364;6.452;2023-07-22T14:44:29;7.40;;;3.45;;
54261;SDS011;40174;52.364;6.452;2023-07-22T14:46:56;8.60;;;3.33;;
54261;SDS011;40174;52.364;6.452;2023-07-22T14:49:23;11.80;;;4.13;;
54261;SDS011;40174;52.364;6.452;2023-07-22T14:51:49;11.38;;;3.92;;
54261;SDS011;40174;52.364;6.452;2023-07-22T14:54:16;7.50;;;3.30;;
54261;SDS011;40174;52.364;6.452;2023-07-22T14:56:44;8.35;;;3.50;;
54261;SDS011;40174;52.364;6.452;2023-07-22T14:59:11;10.25;;;3.42;;